Terminal Aerodrome Forecast
Issued by NWS

Home | Current Version | Previous Version | Text Only | Print | Product List | Glossary On
Versions: 1 2 3 4 5 6 7 8 9 10 11 12 13 14 15 16 17
217
FTUS41 KCAR 231122
TAFFVE
TAF
KFVE 231122Z 2312/2412 22007KT P6SM BKN015
      TEMPO 2312/2313 BKN003
     FM231330 24011G18KT P6SM BKN040
     FM231800 24013G22KT P6SM SCT040
     FM240000 23008KT P6SM SCT050=

USA.gov is the U.S. government's official web portal to all federal, state and local government web resources and services.